createdAt,value
2023-02-09T00:00:42.461Z,9.15
2023-02-09T00:01:45.673Z,9.57
2023-02-09T00:02:47.710Z,10.23
2023-02-09T00:03:51.110Z,10.50
2023-02-09T00:04:53.413Z,9.27
2023-02-09T00:06:00.632Z,10.15
2023-02-09T00:07:03.396Z,10.13
2023-02-09T00:08:06.355Z,9.50
2023-02-09T00:09:08.482Z,9.90
2023-02-09T00:10:11.937Z,10.23
2023-02-09T00:11:18.676Z,9.25
2023-02-09T00:12:39.233Z,10.95
2023-02-09T00:13:44.414Z,8.65
2023-02-09T00:14:46.473Z,10.40
2023-02-09T00:15:50.380Z,10.52
2023-02-09T00:16:52.789Z,10.07
2023-02-09T00:17:56.316Z,9.55
2023-02-09T00:18:58.323Z,10.70
2023-02-09T00:20:01.402Z,10.88
2023-02-09T00:21:07.406Z,9.77
2023-02-09T00:22:10.492Z,10.13
2023-02-09T00:23:12.682Z,9.52
2023-02-09T00:24:16.391Z,10.82
2023-02-09T00:25:18.487Z,10.40
2023-02-09T00:26:21.560Z,10.77
2023-02-09T00:27:23.655Z,9.55
2023-02-09T00:28:27.087Z,10.18
2023-02-09T00:29:29.568Z,9.85
2023-02-09T00:30:32.596Z,9.90
2023-02-09T00:31:35.317Z,9.88
2023-02-09T00:32:38.556Z,9.25
2023-02-09T00:33:41.576Z,10.15
2023-02-09T00:34:45.003Z,9.80
2023-02-09T00:35:47.256Z,9.35
2023-02-09T00:36:52.266Z,10.20
2023-02-09T00:37:54.384Z,10.02
2023-02-09T00:38:57.601Z,10.10
2023-02-09T00:39:59.591Z,9.68
2023-02-09T00:41:02.954Z,10.43
2023-02-09T00:42:07.993Z,9.90
2023-02-09T00:43:12.319Z,9.52
2023-02-09T00:44:14.837Z,10.48
2023-02-09T00:45:17.907Z,10.00
2023-02-09T00:46:19.965Z,10.82
2023-02-09T00:47:22.992Z,11.20
2023-02-09T00:48:25.697Z,11.68
2023-02-09T00:49:29.013Z,10.82
2023-02-09T00:50:31.094Z,10.70
2023-02-09T00:51:34.115Z,9.95
2023-02-09T00:52:39.955Z,11.52
2023-02-09T00:53:42.085Z,11.15
2023-02-09T00:54:45.143Z,10.40
2023-02-09T00:55:48.063Z,10.55
2023-02-09T00:56:51.113Z,10.70
2023-02-09T00:57:54.133Z,10.95
2023-02-09T00:58:56.207Z,10.93
2023-02-09T00:59:59.255Z,10.63
2023-02-09T01:01:01.289Z,11.20
2023-02-09T01:02:04.917Z,12.25
2023-02-09T01:03:07.447Z,11.85
2023-02-09T01:04:10.751Z,11.00
2023-02-09T01:05:13.803Z,11.80
2023-02-09T01:06:15.969Z,10.90
2023-02-09T01:07:19.117Z,11.32
2023-02-09T01:08:22.470Z,10.88
2023-02-09T01:09:26.135Z,11.15
2023-02-09T01:10:29.124Z,12.50
2023-02-09T01:11:31.235Z,11.73
2023-02-09T01:12:34.236Z,11.25
2023-02-09T01:13:38.787Z,11.13
2023-02-09T01:14:41.858Z,11.23
2023-02-09T01:15:44.087Z,12.00
2023-02-09T01:16:47.478Z,11.82
2023-02-09T01:17:49.585Z,10.48
2023-02-09T01:18:52.669Z,11.57
2023-02-09T01:19:55.296Z,11.48
2023-02-09T01:20:58.349Z,12.27
2023-02-09T01:22:00.710Z,12.20
2023-02-09T01:23:03.766Z,12.15
2023-02-09T01:24:07.788Z,12.35
2023-02-09T01:25:11.218Z,12.55
2023-02-09T01:26:15.843Z,12.02
2023-02-09T01:27:19.131Z,11.63
2023-02-09T01:28:21.295Z,12.93
2023-02-09T01:29:24.279Z,12.02
2023-02-09T01:30:26.665Z,13.10
2023-02-09T01:31:33.482Z,13.05
2023-02-09T01:32:35.945Z,12.70
2023-02-09T01:33:39.001Z,11.88
2023-02-09T01:34:42.220Z,11.82
2023-02-09T01:35:44.231Z,11.80
2023-02-09T01:36:48.378Z,12.00
2023-02-09T01:37:50.473Z,12.82
2023-02-09T01:38:55.715Z,12.90
2023-02-09T01:39:59.338Z,12.70
2023-02-09T01:41:02.909Z,11.35
2023-02-09T01:42:05.140Z,12.48
2023-02-09T01:43:08.468Z,11.80
2023-02-09T01:44:45.007Z,11.63
2023-02-09T01:45:48.595Z,12.00
2023-02-09T01:46:51.661Z,11.75
2023-02-09T01:47:58.514Z,11.98
2023-02-09T01:49:06.309Z,11.52
2023-02-09T01:50:08.708Z,12.02
2023-02-09T01:51:12.624Z,12.32
2023-02-09T01:52:18.988Z,11.90
2023-02-09T01:53:22.346Z,12.90
2023-02-09T01:54:29.073Z,13.13
2023-02-09T01:55:37.952Z,13.07
2023-02-09T01:56:44.130Z,12.15
2023-02-09T01:57:53.050Z,13.27
2023-02-09T01:58:55.690Z,13.23
2023-02-09T02:00:03.526Z,13.18
2023-02-09T02:01:16.670Z,12.32
2023-02-09T02:02:20.559Z,13.02
2023-02-09T02:03:27.390Z,12.90
2023-02-09T02:04:30.890Z,12.48
2023-02-09T02:05:37.009Z,11.98
2023-02-09T02:06:40.959Z,12.55
2023-02-09T02:07:48.828Z,12.20
2023-02-09T02:08:55.699Z,13.38
2023-02-09T02:09:58.350Z,12.75
2023-02-09T02:11:02.754Z,13.90
2023-02-09T02:12:05.988Z,12.50
2023-02-09T02:13:09.328Z,13.10
2023-02-09T02:14:29.685Z,12.82
2023-02-09T02:15:40.493Z,12.85
2023-02-09T02:16:52.293Z,13.80
2023-02-09T02:18:12.863Z,13.13
2023-02-09T02:19:54.829Z,13.98
2023-02-09T02:21:52.300Z,13.38
2023-02-09T02:23:05.300Z,13.25
2023-02-09T02:24:39.495Z,13.32
2023-02-09T02:26:24.078Z,14.02
2023-02-09T02:27:33.114Z,12.20
2023-02-09T02:28:45.218Z,11.88
2023-02-09T02:30:21.102Z,12.20
2023-02-09T02:31:53.188Z,11.98
2023-02-09T02:33:07.906Z,12.30
2023-02-09T02:34:18.358Z,12.90
2023-02-09T02:35:29.963Z,12.65
2023-02-09T02:36:39.856Z,12.55
2023-02-09T02:37:54.428Z,12.35
2023-02-09T02:39:03.323Z,11.15
2023-02-09T02:40:13.990Z,11.90
2023-02-09T02:41:22.895Z,12.75
2023-02-09T02:42:49.786Z,12.60
2023-02-09T02:44:02.583Z,12.30
2023-02-09T02:45:11.798Z,12.85
2023-02-09T02:46:20.167Z,12.50
2023-02-09T02:47:25.536Z,13.75
2023-02-09T02:48:35.736Z,13.00
2023-02-09T02:49:43.213Z,13.13
2023-02-09T02:50:51.621Z,13.43
2023-02-09T02:51:58.030Z,14.15
2023-02-09T02:53:05.164Z,13.95
2023-02-09T02:54:12.438Z,12.43
2023-02-09T02:55:17.090Z,14.82
2023-02-09T02:56:25.020Z,15.07
2023-02-09T02:57:31.354Z,14.98
2023-02-09T02:58:37.651Z,13.35
2023-02-09T02:59:44.272Z,14.30
2023-02-09T03:00:51.342Z,13.85
2023-02-09T03:01:58.556Z,13.38
2023-02-09T03:03:06.973Z,13.73
2023-02-09T03:04:12.494Z,13.68
2023-02-09T03:05:15.392Z,14.32
2023-02-09T03:06:19.212Z,13.80
2023-02-09T03:07:21.347Z,13.23
2023-02-09T03:08:24.381Z,13.02
2023-02-09T03:09:26.439Z,12.82
2023-02-09T03:10:34.515Z,13.57
2023-02-09T03:11:41.552Z,12.40
2023-02-09T03:12:54.853Z,12.18
2023-02-09T03:14:11.068Z,12.88
2023-02-09T03:15:27.051Z,13.73
2023-02-09T03:16:37.090Z,13.07
2023-02-09T03:17:47.499Z,13.88
2023-02-09T03:19:01.762Z,14.20
2023-02-09T03:20:11.139Z,13.25
2023-02-09T03:21:16.982Z,12.65
2023-02-09T03:22:29.494Z,14.57
2023-02-09T03:23:34.102Z,13.68
2023-02-09T03:24:41.998Z,13.82
2023-02-09T03:25:48.549Z,13.80
2023-02-09T03:26:57.062Z,13.38
2023-02-09T03:28:05.746Z,13.73
2023-02-09T03:29:10.928Z,13.40
2023-02-09T03:30:17.113Z,13.25
2023-02-09T03:31:21.529Z,13.65
2023-02-09T03:32:24.604Z,13.35
2023-02-09T03:33:30.583Z,13.95
2023-02-09T03:34:34.319Z,13.98
2023-02-09T03:35:40.453Z,13.57
2023-02-09T03:36:43.904Z,14.27
2023-02-09T03:37:46.919Z,14.38
2023-02-09T03:38:48.937Z,15.38
2023-02-09T03:39:51.938Z,13.93
2023-02-09T03:40:54.401Z,14.98
2023-02-09T03:41:57.363Z,13.57
2023-02-09T03:42:59.468Z,14.27
2023-02-09T03:44:19.906Z,15.13
2023-02-09T03:45:22.968Z,13.57
2023-02-09T03:46:25.077Z,15.23
2023-02-09T03:47:28.372Z,14.02
2023-02-09T03:48:30.522Z,13.57
2023-02-09T03:49:36.799Z,14.93
2023-02-09T03:50:38.861Z,13.27
2023-02-09T03:51:42.479Z,15.07
2023-02-09T03:52:45.563Z,14.23
2023-02-09T03:53:47.734Z,14.10
2023-02-09T03:54:50.745Z,14.38
2023-02-09T03:55:52.803Z,14.35
2023-02-09T03:56:55.840Z,15.27
2023-02-09T03:57:57.967Z,15.20
2023-02-09T03:59:01.046Z,14.82
2023-02-09T04:00:03.472Z,14.45
2023-02-09T04:01:15.182Z,14.27
2023-02-09T04:02:17.317Z,14.77
2023-02-09T04:03:20.350Z,14.30
2023-02-09T04:04:22.936Z,14.82
2023-02-09T04:05:27.268Z,15.07
2023-02-09T04:06:31.156Z,14.82
2023-02-09T04:07:34.183Z,14.52
2023-02-09T04:08:36.769Z,14.52
2023-02-09T04:09:39.776Z,15.15
2023-02-09T04:10:41.813Z,13.20
2023-02-09T04:11:45.292Z,14.77
2023-02-09T04:12:48.198Z,14.48
2023-02-09T04:13:51.359Z,14.02
2023-02-09T04:14:53.545Z,14.60
2023-02-09T04:15:56.678Z,14.50
2023-02-09T04:16:58.806Z,13.38
2023-02-09T04:18:01.894Z,14.00
2023-02-09T04:19:04.971Z,13.77
2023-02-09T04:20:08.969Z,14.80
2023-02-09T04:21:12.970Z,13.68
2023-02-09T04:22:16.139Z,14.38
2023-02-09T04:23:20.999Z,14.82
2023-02-09T04:24:24.353Z,13.32
2023-02-09T04:25:26.360Z,13.63
2023-02-09T04:26:29.358Z,12.90
2023-02-09T04:27:31.559Z,13.05
2023-02-09T04:28:34.609Z,14.25
2023-02-09T04:29:36.639Z,13.40
2023-02-09T04:30:39.671Z,14.10
2023-02-09T04:31:41.881Z,13.65
2023-02-09T04:32:44.946Z,14.93
2023-02-09T04:33:46.983Z,14.23
2023-02-09T04:34:49.991Z,14.07
2023-02-09T04:35:52.650Z,13.57
2023-02-09T04:36:57.026Z,15.00
2023-02-09T04:37:59.058Z,14.23
2023-02-09T04:39:02.072Z,13.98
2023-02-09T04:40:07.605Z,13.70
2023-02-09T04:41:11.084Z,13.73
2023-02-09T04:42:13.089Z,13.88
2023-02-09T04:43:16.292Z,13.27
2023-02-09T04:44:18.369Z,14.50
2023-02-09T04:45:21.365Z,14.25
2023-02-09T04:46:23.599Z,13.38
2023-02-09T04:47:26.725Z,14.85
2023-02-09T04:48:29.816Z,14.38
2023-02-09T04:49:32.964Z,14.55
2023-02-09T04:50:35.052Z,15.57
2023-02-09T04:51:38.142Z,14.55
2023-02-09T04:52:41.548Z,13.07
2023-02-09T04:53:44.547Z,14.13
2023-02-09T04:54:46.543Z,15.00
2023-02-09T04:55:51.382Z,13.75
2023-02-09T04:57:14.413Z,13.73
2023-02-09T04:58:37.546Z,15.68
2023-02-09T04:59:41.506Z,14.48
2023-02-09T05:00:43.803Z,15.23
2023-02-09T05:01:47.068Z,14.20
2023-02-09T05:02:49.230Z,15.15
2023-02-09T05:03:52.561Z,13.85
2023-02-09T05:04:54.717Z,15.63
2023-02-09T05:05:58.444Z,15.48
2023-02-09T05:07:00.446Z,14.35
2023-02-09T05:08:04.950Z,15.18
2023-02-09T05:09:07.102Z,15.15
2023-02-09T05:10:10.719Z,14.18
2023-02-09T05:11:13.142Z,13.65
2023-02-09T05:12:16.176Z,14.13
2023-02-09T05:13:18.598Z,14.52
2023-02-09T05:14:21.619Z,14.80
2023-02-09T05:15:23.963Z,14.70
2023-02-09T05:16:27.212Z,14.70
2023-02-09T05:17:31.321Z,15.02
2023-02-09T05:18:34.880Z,14.48
2023-02-09T05:19:37.154Z,14.52
2023-02-09T05:20:40.228Z,14.48
2023-02-09T05:21:42.361Z,14.85
2023-02-09T05:22:45.589Z,16.08
2023-02-09T05:23:48.992Z,14.23
2023-02-09T05:24:51.991Z,14.57
2023-02-09T05:25:54.977Z,13.57
2023-02-09T05:26:58.010Z,14.65
2023-02-09T05:28:00.202Z,14.82
2023-02-09T05:29:03.421Z,14.07
2023-02-09T05:30:06.299Z,13.90
2023-02-09T05:31:09.372Z,13.93
2023-02-09T05:32:11.569Z,14.32
2023-02-09T05:33:14.674Z,14.77
2023-02-09T05:34:16.729Z,13.93
2023-02-09T05:35:19.951Z,14.88
2023-02-09T05:36:21.995Z,15.15
2023-02-09T05:37:25.001Z,14.13
2023-02-09T05:38:27.085Z,13.40
2023-02-09T05:39:31.576Z,14.55
2023-02-09T05:40:34.565Z,14.45
2023-02-09T05:41:55.013Z,14.05
2023-02-09T05:42:59.764Z,14.80
2023-02-09T05:44:01.833Z,13.40
2023-02-09T05:45:05.269Z,14.23
2023-02-09T05:46:08.706Z,13.80
2023-02-09T05:47:11.555Z,13.93
2023-02-09T05:48:14.789Z,13.73
2023-02-09T05:49:17.129Z,13.40
2023-02-09T05:50:20.656Z,13.38
2023-02-09T05:51:22.743Z,12.73
2023-02-09T05:52:25.883Z,13.40
2023-02-09T05:53:28.100Z,13.05
2023-02-09T05:54:32.596Z,13.55
2023-02-09T05:55:34.732Z,13.90
2023-02-09T05:56:38.080Z,13.55
2023-02-09T05:57:40.131Z,13.80
2023-02-09T05:58:43.096Z,14.15
2023-02-09T05:59:45.188Z,13.73
2023-02-09T06:00:48.257Z,13.25
2023-02-09T06:01:50.821Z,13.20
2023-02-09T06:02:53.968Z,12.57
2023-02-09T06:03:55.972Z,12.93
2023-02-09T06:04:58.965Z,13.18
2023-02-09T06:06:01.057Z,13.02
2023-02-09T06:07:04.598Z,13.35
2023-02-09T06:08:07.595Z,13.98
2023-02-09T06:09:10.674Z,13.48
2023-02-09T06:10:15.101Z,14.88
2023-02-09T06:11:17.197Z,14.80
2023-02-09T06:12:20.326Z,13.95
2023-02-09T06:13:22.329Z,12.75
2023-02-09T06:14:25.473Z,14.77
2023-02-09T06:15:27.550Z,13.68
2023-02-09T06:16:30.711Z,13.90
2023-02-09T06:17:32.727Z,14.05
2023-02-09T06:18:35.826Z,13.32
2023-02-09T06:19:37.847Z,13.75
2023-02-09T06:20:40.864Z,13.65
2023-02-09T06:21:43.444Z,14.13
2023-02-09T06:22:46.554Z,13.73
2023-02-09T06:23:48.728Z,13.50
2023-02-09T06:24:51.736Z,14.80
2023-02-09T06:25:55.158Z,14.07
2023-02-09T06:26:58.185Z,14.65
2023-02-09T06:28:01.426Z,13.93
2023-02-09T06:29:05.255Z,14.63
2023-02-09T06:30:08.427Z,13.57
2023-02-09T06:31:12.244Z,14.30
2023-02-09T06:32:14.444Z,14.05
2023-02-09T06:33:17.545Z,14.25
2023-02-09T06:34:19.726Z,14.38
2023-02-09T06:35:22.695Z,14.07
2023-02-09T06:36:24.745Z,15.32
2023-02-09T06:37:27.792Z,14.50
2023-02-09T06:38:30.679Z,13.93
2023-02-09T06:39:33.691Z,14.48
2023-02-09T06:40:35.953Z,15.55
2023-02-09T06:41:40.325Z,14.40
2023-02-09T06:42:45.211Z,13.32
2023-02-09T06:43:48.226Z,13.07
2023-02-09T06:44:51.323Z,13.93
2023-02-09T06:45:53.651Z,14.25
2023-02-09T06:46:56.619Z,14.65
2023-02-09T06:47:58.780Z,14.40
2023-02-09T06:49:02.118Z,14.52
2023-02-09T06:50:04.928Z,13.52
2023-02-09T06:51:09.255Z,15.35
2023-02-09T06:52:11.369Z,13.23
2023-02-09T06:53:14.446Z,13.73
2023-02-09T06:54:17.587Z,13.70
2023-02-09T06:55:19.851Z,14.35
2023-02-09T06:56:23.364Z,14.27
2023-02-09T06:57:29.499Z,13.80
2023-02-09T06:58:31.573Z,14.70
2023-02-09T06:59:34.558Z,13.73
2023-02-09T07:00:36.593Z,14.55
2023-02-09T07:01:39.679Z,14.68
2023-02-09T07:02:43.742Z,13.68
2023-02-09T07:03:47.013Z,14.00
2023-02-09T07:04:49.089Z,13.88
2023-02-09T07:05:52.170Z,14.68
2023-02-09T07:06:55.201Z,13.20
2023-02-09T07:07:57.394Z,13.70
2023-02-09T07:09:00.426Z,13.32
2023-02-09T07:10:02.542Z,14.10
2023-02-09T07:11:06.943Z,13.93
2023-02-09T07:12:10.403Z,13.50
2023-02-09T07:13:13.775Z,13.32
2023-02-09T07:14:18.045Z,14.77
2023-02-09T07:15:20.065Z,14.25
2023-02-09T07:16:23.187Z,14.00
2023-02-09T07:17:26.402Z,14.52
2023-02-09T07:18:30.366Z,14.57
2023-02-09T07:19:33.448Z,13.48
2023-02-09T07:20:35.441Z,13.73
2023-02-09T07:21:38.399Z,12.70
2023-02-09T07:22:41.045Z,13.82
2023-02-09T07:23:44.122Z,12.93
2023-02-09T07:24:46.135Z,13.50
2023-02-09T07:25:49.380Z,13.48
2023-02-09T07:26:52.420Z,13.05
2023-02-09T07:27:54.626Z,13.20
2023-02-09T07:28:59.119Z,13.45
2023-02-09T07:30:01.499Z,12.95
2023-02-09T07:31:06.640Z,13.23
2023-02-09T07:32:09.809Z,13.60
2023-02-09T07:33:12.983Z,14.77
2023-02-09T07:34:17.822Z,14.48
2023-02-09T07:35:19.909Z,13.98
2023-02-09T07:36:23.206Z,13.93
2023-02-09T07:37:25.377Z,14.40
2023-02-09T07:38:28.465Z,13.40
2023-02-09T07:39:32.067Z,14.40
2023-02-09T07:40:34.331Z,12.95
2023-02-09T07:41:37.404Z,13.45
2023-02-09T07:42:39.448Z,12.85
2023-02-09T07:43:43.987Z,12.57
2023-02-09T07:44:47.397Z,13.30
2023-02-09T07:45:50.395Z,13.80
2023-02-09T07:46:53.572Z,13.00
2023-02-09T07:47:55.688Z,12.38
2023-02-09T07:49:01.273Z,13.13
2023-02-09T07:50:03.795Z,12.88
2023-02-09T07:51:07.448Z,12.32
2023-02-09T07:52:10.575Z,12.70
2023-02-09T07:53:13.695Z,12.20
2023-02-09T07:54:15.757Z,12.35
2023-02-09T07:55:18.815Z,12.68
2023-02-09T07:56:21.000Z,11.38
2023-02-09T07:57:24.000Z,11.52
2023-02-09T07:58:27.008Z,11.77
2023-02-09T07:59:29.081Z,12.23
2023-02-09T08:00:33.413Z,11.07
2023-02-09T08:01:35.545Z,11.40
2023-02-09T08:02:39.854Z,12.57
2023-02-09T08:03:46.729Z,11.35
2023-02-09T08:04:50.819Z,12.40
2023-02-09T08:05:59.266Z,10.85
2023-02-09T08:07:01.332Z,10.93
2023-02-09T08:08:04.396Z,11.60
2023-02-09T08:09:08.308Z,11.95
2023-02-09T08:10:11.357Z,12.10
2023-02-09T08:11:16.195Z,11.85
2023-02-09T08:12:19.919Z,11.25
2023-02-09T08:13:22.954Z,11.63
2023-02-09T08:14:29.271Z,10.73
2023-02-09T08:15:38.404Z,11.25
2023-02-09T08:16:42.286Z,12.88
2023-02-09T08:17:44.726Z,10.25
2023-02-09T08:18:53.429Z,12.15
2023-02-09T08:20:01.704Z,11.18
2023-02-09T08:21:07.333Z,10.27
2023-02-09T08:22:10.479Z,11.20
2023-02-09T08:23:16.903Z,12.00
2023-02-09T08:24:21.299Z,11.60
2023-02-09T08:25:25.954Z,10.52
2023-02-09T08:26:28.103Z,11.05
2023-02-09T08:27:31.840Z,10.73
2023-02-09T08:28:43.928Z,10.55
2023-02-09T08:29:48.952Z,11.23
2023-02-09T08:30:53.599Z,11.32
2023-02-09T08:31:55.782Z,11.45
2023-02-09T08:32:58.879Z,10.73
2023-02-09T08:34:01.936Z,10.52
2023-02-09T08:35:04.576Z,10.65
2023-02-09T08:36:08.406Z,11.40
2023-02-09T08:37:11.408Z,9.13
2023-02-09T08:38:14.572Z,10.00
2023-02-09T08:39:17.603Z,10.50
2023-02-09T08:40:20.834Z,10.30
2023-02-09T08:41:24.009Z,10.35
2023-02-09T08:42:27.021Z,10.50
2023-02-09T08:43:30.030Z,10.57
2023-02-09T08:44:33.146Z,9.68
2023-02-09T08:45:37.325Z,10.60
2023-02-09T08:46:40.950Z,9.77
2023-02-09T08:47:44.006Z,10.30
2023-02-09T08:48:47.118Z,9.65
2023-02-09T08:49:51.007Z,10.20
2023-02-09T08:50:53.121Z,9.77
2023-02-09T08:51:56.140Z,10.68
2023-02-09T08:52:59.187Z,10.63
2023-02-09T08:54:01.253Z,10.65
2023-02-09T08:55:04.699Z,10.25
2023-02-09T08:56:06.909Z,10.57
2023-02-09T08:57:09.928Z,11.00
2023-02-09T08:58:13.052Z,10.60
2023-02-09T08:59:17.316Z,10.40
2023-02-09T09:00:21.640Z,10.43
2023-02-09T09:01:24.705Z,10.75
2023-02-09T09:02:29.041Z,10.73
2023-02-09T09:03:33.234Z,10.18
2023-02-09T09:04:35.720Z,10.35
2023-02-09T09:05:39.451Z,9.80
2023-02-09T09:06:42.510Z,10.55
2023-02-09T09:07:45.744Z,11.45
2023-02-09T09:08:48.728Z,10.68
2023-02-09T09:09:51.811Z,10.75
2023-02-09T09:10:55.092Z,10.60
2023-02-09T09:11:58.266Z,10.65
2023-02-09T09:13:01.243Z,12.13
2023-02-09T09:14:04.284Z,11.98
2023-02-09T09:15:08.071Z,10.60
2023-02-09T09:16:15.584Z,11.27
2023-02-09T09:17:18.668Z,12.85
2023-02-09T09:18:24.105Z,11.80
2023-02-09T09:19:28.529Z,11.73
2023-02-09T09:20:31.524Z,12.25
2023-02-09T09:21:33.914Z,12.43
2023-02-09T09:22:37.084Z,12.43
2023-02-09T09:23:40.089Z,14.63
2023-02-09T09:24:43.269Z,13.27
2023-02-09T09:25:45.583Z,13.40
2023-02-09T09:26:48.830Z,12.43
2023-02-09T09:27:52.015Z,13.10
2023-02-09T09:28:55.122Z,14.13
2023-02-09T09:29:58.146Z,14.23
2023-02-09T09:31:05.909Z,13.17
2023-02-09T09:32:12.849Z,12.43
2023-02-09T09:33:16.165Z,13.30
2023-02-09T09:34:20.625Z,15.40
2023-02-09T09:35:23.937Z,13.93
2023-02-09T09:36:27.050Z,13.80
2023-02-09T09:37:30.170Z,13.13
2023-02-09T09:38:34.405Z,14.27
2023-02-09T09:39:37.547Z,13.30
2023-02-09T09:40:42.812Z,15.13
2023-02-09T09:41:48.393Z,14.67
2023-02-09T09:42:54.193Z,15.23
2023-02-09T09:43:57.871Z,15.13
2023-02-09T09:45:01.259Z,15.50
2023-02-09T09:46:06.958Z,15.10
2023-02-09T09:47:15.860Z,15.70
2023-02-09T09:48:23.467Z,15.77
2023-02-09T09:49:29.791Z,14.93
2023-02-09T09:50:37.613Z,15.10
2023-02-09T09:51:42.744Z,15.50
2023-02-09T09:52:49.106Z,16.17
2023-02-09T09:53:54.630Z,14.80
2023-02-09T09:54:58.485Z,14.83
2023-02-09T09:56:05.094Z,14.97
2023-02-09T09:57:19.157Z,14.53
2023-02-09T09:58:22.095Z,14.47
2023-02-09T09:59:27.668Z,15.63
2023-02-09T10:00:35.665Z,14.63
2023-02-09T10:01:38.784Z,14.13
2023-02-09T10:02:42.336Z,14.53
2023-02-09T10:03:45.785Z,14.17
2023-02-09T10:04:50.913Z,15.13
2023-02-09T10:05:55.908Z,13.87
2023-02-09T10:07:03.077Z,14.87
2023-02-09T10:08:13.411Z,14.10
2023-02-09T10:09:26.022Z,13.73
2023-02-09T10:10:39.162Z,14.80
2023-02-09T10:11:50.874Z,14.33
2023-02-09T10:12:54.965Z,13.63
2023-02-09T10:13:58.742Z,13.33
2023-02-09T10:15:17.761Z,14.80
2023-02-09T10:16:24.822Z,14.03
2023-02-09T10:17:27.866Z,13.13
2023-02-09T10:18:35.914Z,13.67
2023-02-09T10:19:37.946Z,13.63
2023-02-09T10:20:47.510Z,14.07
2023-02-09T10:21:50.567Z,15.00
2023-02-09T10:22:53.578Z,15.20
2023-02-09T10:24:12.644Z,14.27
2023-02-09T10:25:49.191Z,13.90
2023-02-09T10:27:05.364Z,13.80
2023-02-09T10:28:19.888Z,14.80
2023-02-09T10:29:26.051Z,13.53
2023-02-09T10:30:30.049Z,13.80
2023-02-09T10:31:36.079Z,13.30
2023-02-09T10:32:42.824Z,13.87
2023-02-09T10:33:47.176Z,14.30
2023-02-09T10:34:52.324Z,13.47
2023-02-09T10:36:00.965Z,14.53
2023-02-09T10:37:20.448Z,14.57
2023-02-09T10:38:26.380Z,14.03
2023-02-09T10:39:32.451Z,13.60
2023-02-09T10:40:41.195Z,14.23
2023-02-09T10:41:47.037Z,13.97
2023-02-09T10:42:56.205Z,13.90
2023-02-09T10:43:59.342Z,12.80
2023-02-09T10:45:08.950Z,13.73
2023-02-09T10:46:16.408Z,13.27
2023-02-09T10:47:30.969Z,13.07
2023-02-09T10:48:42.570Z,14.23
2023-02-09T10:49:52.505Z,13.47
2023-02-09T10:50:59.976Z,14.57
2023-02-09T10:52:17.367Z,13.47
2023-02-09T10:53:24.643Z,14.07
2023-02-09T10:54:27.900Z,13.43
2023-02-09T10:55:36.846Z,13.40
2023-02-09T10:56:46.491Z,15.30
2023-02-09T10:57:50.043Z,14.00
2023-02-09T10:58:55.289Z,14.63
2023-02-09T11:00:00.218Z,14.67
2023-02-09T11:01:15.126Z,14.70
2023-02-09T11:02:33.496Z,13.93
2023-02-09T11:03:37.430Z,13.27
2023-02-09T11:04:41.774Z,13.67
2023-02-09T11:05:46.557Z,12.93
2023-02-09T11:06:55.522Z,14.70
2023-02-09T11:08:04.140Z,13.60
2023-02-09T11:09:13.022Z,14.13
2023-02-09T11:10:15.050Z,14.00
2023-02-09T11:11:29.971Z,13.37
2023-02-09T11:12:33.029Z,13.67
2023-02-09T11:13:36.425Z,14.40
2023-02-09T11:14:39.667Z,13.13
2023-02-09T11:15:48.197Z,14.27
2023-02-09T11:17:01.155Z,14.50
2023-02-09T11:18:11.941Z,13.13
2023-02-09T11:19:34.794Z,13.80
2023-02-09T11:20:41.401Z,13.23
2023-02-09T11:21:56.842Z,13.43
2023-02-09T11:23:14.526Z,14.30
2023-02-09T11:24:26.320Z,13.53
2023-02-09T11:25:34.094Z,14.13
2023-02-09T11:26:43.166Z,13.93
2023-02-09T11:28:02.487Z,14.60
2023-02-09T11:29:15.791Z,12.80
2023-02-09T11:30:29.454Z,14.00
2023-02-09T11:31:48.021Z,13.27
2023-02-09T11:32:54.659Z,14.10
2023-02-09T11:34:07.877Z,14.70
2023-02-09T11:35:12.318Z,13.20
2023-02-09T11:36:33.240Z,13.50
2023-02-09T11:37:46.763Z,13.50
2023-02-09T11:38:55.123Z,14.40
2023-02-09T11:40:04.458Z,13.70
2023-02-09T11:41:28.279Z,13.57
2023-02-09T11:42:46.797Z,14.43
2023-02-09T11:43:51.516Z,14.17
2023-02-09T11:44:57.646Z,14.07
2023-02-09T11:46:04.787Z,13.60
2023-02-09T11:47:12.437Z,13.37
2023-02-09T11:48:23.368Z,14.13
2023-02-09T11:49:29.311Z,13.87
2023-02-09T11:50:38.935Z,13.43
2023-02-09T11:51:45.231Z,13.77
2023-02-09T11:52:52.972Z,13.23
2023-02-09T11:54:03.252Z,13.50
2023-02-09T11:55:19.721Z,14.17
2023-02-09T11:56:25.499Z,12.77
2023-02-09T11:57:35.453Z,12.63
2023-02-09T11:58:50.969Z,13.23
2023-02-09T11:59:57.180Z,13.20
2023-02-09T12:01:15.098Z,13.00
2023-02-09T12:02:32.500Z,13.30
2023-02-09T12:03:35.565Z,12.53
2023-02-09T12:04:43.367Z,13.10
2023-02-09T12:05:45.754Z,13.23
2023-02-09T12:06:51.668Z,13.00
2023-02-09T12:08:15.720Z,13.03
2023-02-09T12:09:31.211Z,12.97
2023-02-09T12:10:41.632Z,12.77
2023-02-09T12:11:54.028Z,12.73
2023-02-09T12:13:02.461Z,12.53
2023-02-09T12:14:19.545Z,12.87
2023-02-09T12:15:26.202Z,12.33
2023-02-09T12:16:32.049Z,12.63
2023-02-09T12:17:42.712Z,12.53
2023-02-09T12:18:46.555Z,12.90
2023-02-09T12:19:58.169Z,13.33
2023-02-09T12:21:03.062Z,13.67
2023-02-09T12:22:43.527Z,13.07
2023-02-09T12:23:47.896Z,12.80
2023-02-09T12:25:14.064Z,13.00
2023-02-09T12:26:35.163Z,13.67
2023-02-09T12:27:41.288Z,13.50
2023-02-09T12:28:46.929Z,13.33
2023-02-09T12:29:49.955Z,12.77
2023-02-09T12:31:00.376Z,13.77
2023-02-09T12:32:27.280Z,12.47
2023-02-09T12:33:31.887Z,11.97
2023-02-09T12:34:40.229Z,13.77
2023-02-09T12:35:43.149Z,12.87
2023-02-09T12:37:18.758Z,12.20
2023-02-09T12:38:22.382Z,12.67
2023-02-09T12:39:29.445Z,12.57
2023-02-09T12:40:39.367Z,13.30
2023-02-09T12:42:28.940Z,13.27
2023-02-09T12:43:33.673Z,12.43
2023-02-09T12:44:38.452Z,12.60
2023-02-09T12:45:43.641Z,12.90
2023-02-09T12:46:53.519Z,12.30
2023-02-09T12:47:58.021Z,12.37
2023-02-09T12:49:10.423Z,14.00
2023-02-09T12:50:29.986Z,13.07
2023-02-09T12:51:55.350Z,12.57
2023-02-09T12:53:34.582Z,12.93
2023-02-09T12:54:44.287Z,12.87
2023-02-09T12:55:59.034Z,12.70
2023-02-09T12:57:54.438Z,12.63
2023-02-09T12:59:21.834Z,11.77
2023-02-09T13:00:42.730Z,12.40
2023-02-09T13:02:23.911Z,12.40
2023-02-09T13:03:29.263Z,12.43
2023-02-09T13:04:37.282Z,13.53
2023-02-09T13:05:44.633Z,13.53
2023-02-09T13:06:52.591Z,13.10
2023-02-09T13:08:03.671Z,13.07
2023-02-09T13:09:10.548Z,13.80
2023-02-09T13:10:25.546Z,13.30
2023-02-09T13:11:33.710Z,13.17
2023-02-09T13:12:43.509Z,13.10
2023-02-09T13:13:52.380Z,13.87
2023-02-09T13:14:55.621Z,13.20
2023-02-09T13:16:17.209Z,13.90
2023-02-09T13:17:32.127Z,13.20
2023-02-09T13:18:41.781Z,13.30
2023-02-09T13:19:58.842Z,12.70
2023-02-09T13:21:19.572Z,12.97
2023-02-09T13:22:33.890Z,13.13
2023-02-09T13:23:47.253Z,14.20
2023-02-09T13:24:54.399Z,14.33
2023-02-09T13:26:04.069Z,13.37
2023-02-09T13:27:18.875Z,13.77
2023-02-09T13:28:23.046Z,14.10
2023-02-09T13:29:27.925Z,14.37
2023-02-09T13:30:33.169Z,14.63
2023-02-09T13:31:39.580Z,12.57
2023-02-09T13:32:55.956Z,14.70
2023-02-09T13:34:03.350Z,14.47
2023-02-09T13:35:16.104Z,13.70
2023-02-09T13:36:29.994Z,13.93
2023-02-09T13:37:41.211Z,13.93
2023-02-09T13:38:44.590Z,13.33
2023-02-09T13:39:57.341Z,13.90
2023-02-09T13:41:02.190Z,14.43
2023-02-09T13:42:17.017Z,13.63
2023-02-09T13:43:28.214Z,14.33
2023-02-09T13:44:32.086Z,13.10
2023-02-09T13:45:34.233Z,13.63
2023-02-09T13:46:39.265Z,13.90
2023-02-09T13:47:43.257Z,14.30
2023-02-09T13:48:46.341Z,13.20
2023-02-09T13:50:13.975Z,14.60
2023-02-09T13:51:20.680Z,14.27
2023-02-09T13:52:23.747Z,13.23
2023-02-09T13:53:28.573Z,14.13
2023-02-09T13:54:31.544Z,13.10
2023-02-09T13:55:39.735Z,12.67
2023-02-09T13:56:44.283Z,13.20
2023-02-09T13:57:51.839Z,12.47
2023-02-09T13:58:56.324Z,12.53
2023-02-09T14:00:09.436Z,12.90
2023-02-09T14:01:28.339Z,13.77
2023-02-09T14:02:31.549Z,12.67
2023-02-09T14:03:46.943Z,12.77
2023-02-09T14:05:03.798Z,12.87
2023-02-09T14:06:10.289Z,13.00
2023-02-09T14:07:14.658Z,13.83
2023-02-09T14:08:19.890Z,13.47
2023-02-09T14:09:27.543Z,13.63
2023-02-09T14:10:31.760Z,13.23
2023-02-09T14:11:42.594Z,12.97
2023-02-09T14:12:51.809Z,13.20
2023-02-09T14:13:59.480Z,12.83
2023-02-09T14:15:19.869Z,12.73
2023-02-09T14:16:27.603Z,13.20